sensor_id;sensor_type;location;lat;lon;timestamp;P1;durP1;ratioP1;P2;durP2;ratioP2
25846;SDS011;13676;50.168;8.568;2023-05-29T00:01:34;5.43;;;2.72;;
25846;SDS011;13676;50.168;8.568;2023-05-29T00:04:01;5.00;;;2.80;;
25846;SDS011;13676;50.168;8.568;2023-05-29T00:06:27;5.38;;;2.47;;
25846;SDS011;13676;50.168;8.568;2023-05-29T00:08:52;5.15;;;2.25;;
25846;SDS011;13676;50.168;8.568;2023-05-29T00:11:18;3.30;;;1.83;;
25846;SDS011;13676;50.168;8.568;2023-05-29T00:13:43;5.60;;;3.08;;
25846;SDS011;13676;50.168;8.568;2023-05-29T00:16:09;3.13;;;2.13;;
25846;SDS011;13676;50.168;8.568;2023-05-29T00:18:34;5.93;;;2.50;;
25846;SDS011;13676;50.168;8.568;2023-05-29T00:21:00;6.07;;;2.50;;
25846;SDS011;13676;50.168;8.568;2023-05-29T00:23:26;4.72;;;2.53;;
25846;SDS011;13676;50.168;8.568;2023-05-29T00:25:52;5.53;;;2.55;;
25846;SDS011;13676;50.168;8.568;2023-05-29T00:28:18;3.08;;;2.10;;
25846;SDS011;13676;50.168;8.568;2023-05-29T00:30:43;9.05;;;3.03;;
25846;SDS011;13676;50.168;8.568;2023-05-29T00:33:09;6.80;;;2.88;;
25846;SDS011;13676;50.168;8.568;2023-05-29T00:35:35;6.10;;;2.88;;
25846;SDS011;13676;50.168;8.568;2023-05-29T00:38:00;9.00;;;2.85;;
25846;SDS011;13676;50.168;8.568;2023-05-29T00:40:26;3.85;;;2.20;;
25846;SDS011;13676;50.168;8.568;2023-05-29T00:42:52;5.15;;;3.00;;
25846;SDS011;13676;50.168;8.568;2023-05-29T00:45:18;7.55;;;3.55;;
25846;SDS011;13676;50.168;8.568;2023-05-29T00:47:44;7.80;;;3.15;;
25846;SDS011;13676;50.168;8.568;2023-05-29T00:50:10;4.75;;;2.10;;
25846;SDS011;13676;50.168;8.568;2023-05-29T00:52:38;5.03;;;2.67;;
25846;SDS011;13676;50.168;8.568;2023-05-29T00:55:05;6.93;;;2.83;;
25846;SDS011;13676;50.168;8.568;2023-05-29T00:57:33;9.93;;;3.30;;
25846;SDS011;13676;50.168;8.568;2023-05-29T00:59:59;5.30;;;2.85;;
25846;SDS011;13676;50.168;8.568;2023-05-29T01:02:31;6.13;;;2.92;;
25846;SDS011;13676;50.168;8.568;2023-05-29T01:04:56;6.18;;;2.80;;
25846;SDS011;13676;50.168;8.568;2023-05-29T01:07:22;5.90;;;2.33;;
25846;SDS011;13676;50.168;8.568;2023-05-29T01:09:47;5.22;;;2.70;;
25846;SDS011;13676;50.168;8.568;2023-05-29T01:14:48;6.20;;;2.90;;
25846;SDS011;13676;50.168;8.568;2023-05-29T01:17:28;4.88;;;2.67;;
25846;SDS011;13676;50.168;8.568;2023-05-29T01:25:27;3.65;;;2.20;;
25846;SDS011;13676;50.168;8.568;2023-05-29T01:27:59;4.25;;;2.33;;
25846;SDS011;13676;50.168;8.568;2023-05-29T01:30:27;5.53;;;2.65;;
25846;SDS011;13676;50.168;8.568;2023-05-29T01:32:53;4.85;;;2.63;;
25846;SDS011;13676;50.168;8.568;2023-05-29T01:35:20;6.88;;;2.97;;
25846;SDS011;13676;50.168;8.568;2023-05-29T01:37:45;5.40;;;2.58;;
25846;SDS011;13676;50.168;8.568;2023-05-29T01:40:11;7.05;;;2.80;;
25846;SDS011;13676;50.168;8.568;2023-05-29T01:42:38;6.38;;;2.97;;
25846;SDS011;13676;50.168;8.568;2023-05-29T01:45:05;7.00;;;3.13;;
25846;SDS011;13676;50.168;8.568;2023-05-29T01:47:32;5.75;;;2.78;;
25846;SDS011;13676;50.168;8.568;2023-05-29T01:49:58;4.40;;;2.40;;
25846;SDS011;13676;50.168;8.568;2023-05-29T01:52:26;6.03;;;2.40;;
25846;SDS011;13676;50.168;8.568;2023-05-29T01:54:51;5.93;;;2.60;;
25846;SDS011;13676;50.168;8.568;2023-05-29T01:57:16;6.88;;;3.30;;
25846;SDS011;13676;50.168;8.568;2023-05-29T01:59:43;7.60;;;3.00;;
25846;SDS011;13676;50.168;8.568;2023-05-29T02:02:08;4.30;;;2.50;;
25846;SDS011;13676;50.168;8.568;2023-05-29T02:04:34;5.20;;;2.70;;
25846;SDS011;13676;50.168;8.568;2023-05-29T02:06:59;6.75;;;2.92;;
25846;SDS011;13676;50.168;8.568;2023-05-29T02:09:24;8.35;;;2.92;;
25846;SDS011;13676;50.168;8.568;2023-05-29T02:11:51;5.20;;;2.80;;
25846;SDS011;13676;50.168;8.568;2023-05-29T02:14:16;6.57;;;2.80;;
25846;SDS011;13676;50.168;8.568;2023-05-29T02:16:41;5.93;;;2.97;;
25846;SDS011;13676;50.168;8.568;2023-05-29T02:19:09;6.43;;;2.38;;
25846;SDS011;13676;50.168;8.568;2023-05-29T02:21:37;4.25;;;2.38;;
25846;SDS011;13676;50.168;8.568;2023-05-29T02:24:03;3.92;;;2.17;;
25846;SDS011;13676;50.168;8.568;2023-05-29T02:26:31;10.05;;;2.92;;
25846;SDS011;13676;50.168;8.568;2023-05-29T02:28:56;3.38;;;2.20;;
25846;SDS011;13676;50.168;8.568;2023-05-29T02:31:22;4.85;;;2.50;;
25846;SDS011;13676;50.168;8.568;2023-05-29T02:33:48;6.70;;;2.20;;
25846;SDS011;13676;50.168;8.568;2023-05-29T02:36:13;9.90;;;2.90;;
25846;SDS011;13676;50.168;8.568;2023-05-29T02:38:41;7.00;;;2.97;;
25846;SDS011;13676;50.168;8.568;2023-05-29T02:41:06;4.22;;;2.47;;
25846;SDS011;13676;50.168;8.568;2023-05-29T02:43:32;5.38;;;2.50;;
25846;SDS011;13676;50.168;8.568;2023-05-29T02:45:58;5.60;;;2.55;;
25846;SDS011;13676;50.168;8.568;2023-05-29T02:48:23;4.70;;;2.45;;
25846;SDS011;13676;50.168;8.568;2023-05-29T02:50:50;4.72;;;2.63;;
25846;SDS011;13676;50.168;8.568;2023-05-29T02:53:16;5.88;;;2.50;;
25846;SDS011;13676;50.168;8.568;2023-05-29T02:55:41;4.55;;;2.70;;
25846;SDS011;13676;50.168;8.568;2023-05-29T02:58:07;4.53;;;2.75;;
25846;SDS011;13676;50.168;8.568;2023-05-29T03:00:33;6.20;;;2.95;;
25846;SDS011;13676;50.168;8.568;2023-05-29T03:02:59;8.68;;;3.35;;
25846;SDS011;13676;50.168;8.568;2023-05-29T03:05:25;9.30;;;3.28;;
25846;SDS011;13676;50.168;8.568;2023-05-29T03:07:52;7.25;;;3.28;;
25846;SDS011;13676;50.168;8.568;2023-05-29T03:10:17;7.40;;;2.80;;
25846;SDS011;13676;50.168;8.568;2023-05-29T03:12:43;9.25;;;3.50;;
25846;SDS011;13676;50.168;8.568;2023-05-29T03:15:09;6.68;;;3.58;;
25846;SDS011;13676;50.168;8.568;2023-05-29T03:17:35;6.50;;;3.60;;
25846;SDS011;13676;50.168;8.568;2023-05-29T03:20:03;8.48;;;3.10;;
25846;SDS011;13676;50.168;8.568;2023-05-29T03:22:33;9.27;;;3.42;;
25846;SDS011;13676;50.168;8.568;2023-05-29T03:25:00;8.07;;;3.75;;
25846;SDS011;13676;50.168;8.568;2023-05-29T03:27:27;12.15;;;3.53;;
25846;SDS011;13676;50.168;8.568;2023-05-29T03:29:54;6.53;;;3.63;;
25846;SDS011;13676;50.168;8.568;2023-05-29T03:32:22;16.63;;;3.63;;
25846;SDS011;13676;50.168;8.568;2023-05-29T03:34:47;11.10;;;4.43;;
25846;SDS011;13676;50.168;8.568;2023-05-29T03:37:13;7.32;;;3.97;;
25846;SDS011;13676;50.168;8.568;2023-05-29T03:39:38;7.68;;;3.42;;
25846;SDS011;13676;50.168;8.568;2023-05-29T03:42:04;8.10;;;3.67;;
25846;SDS011;13676;50.168;8.568;2023-05-29T03:44:30;9.23;;;4.15;;
25846;SDS011;13676;50.168;8.568;2023-05-29T03:46:56;8.23;;;4.10;;
25846;SDS011;13676;50.168;8.568;2023-05-29T03:49:21;8.18;;;4.10;;
25846;SDS011;13676;50.168;8.568;2023-05-29T03:51:47;10.48;;;4.18;;
25846;SDS011;13676;50.168;8.568;2023-05-29T03:54:13;9.18;;;4.13;;
25846;SDS011;13676;50.168;8.568;2023-05-29T03:56:38;8.63;;;3.95;;
25846;SDS011;13676;50.168;8.568;2023-05-29T03:59:03;6.28;;;3.55;;
25846;SDS011;13676;50.168;8.568;2023-05-29T04:01:29;7.78;;;3.80;;
25846;SDS011;13676;50.168;8.568;2023-05-29T04:03:54;12.30;;;4.47;;
25846;SDS011;13676;50.168;8.568;2023-05-29T04:06:20;8.82;;;4.05;;
25846;SDS011;13676;50.168;8.568;2023-05-29T04:08:46;9.13;;;3.58;;
25846;SDS011;13676;50.168;8.568;2023-05-29T04:11:12;12.18;;;3.90;;
25846;SDS011;13676;50.168;8.568;2023-05-29T04:13:38;8.02;;;3.97;;
25846;SDS011;13676;50.168;8.568;2023-05-29T04:16:04;12.02;;;4.20;;
25846;SDS011;13676;50.168;8.568;2023-05-29T04:18:29;5.55;;;3.22;;
25846;SDS011;13676;50.168;8.568;2023-05-29T04:20:55;10.85;;;4.50;;
25846;SDS011;13676;50.168;8.568;2023-05-29T04:23:21;9.32;;;3.95;;
25846;SDS011;13676;50.168;8.568;2023-05-29T04:25:46;10.95;;;3.83;;
25846;SDS011;13676;50.168;8.568;2023-05-29T04:28:12;8.32;;;4.03;;
25846;SDS011;13676;50.168;8.568;2023-05-29T04:30:37;5.28;;;3.58;;
25846;SDS011;13676;50.168;8.568;2023-05-29T04:33:04;9.17;;;4.13;;
25846;SDS011;13676;50.168;8.568;2023-05-29T04:35:30;7.00;;;3.53;;
25846;SDS011;13676;50.168;8.568;2023-05-29T04:37:55;6.32;;;3.60;;
25846;SDS011;13676;50.168;8.568;2023-05-29T04:40:22;8.38;;;4.00;;
25846;SDS011;13676;50.168;8.568;2023-05-29T04:42:48;9.02;;;3.72;;
25846;SDS011;13676;50.168;8.568;2023-05-29T04:45:16;9.37;;;4.03;;
25846;SDS011;13676;50.168;8.568;2023-05-29T04:47:45;9.40;;;4.15;;
25846;SDS011;13676;50.168;8.568;2023-05-29T04:50:11;12.73;;;4.28;;
25846;SDS011;13676;50.168;8.568;2023-05-29T04:52:37;9.77;;;4.18;;
25846;SDS011;13676;50.168;8.568;2023-05-29T04:55:03;9.20;;;3.80;;
25846;SDS011;13676;50.168;8.568;2023-05-29T04:59:56;12.48;;;4.28;;
25846;SDS011;13676;50.168;8.568;2023-05-29T05:02:21;9.13;;;3.90;;
25846;SDS011;13676;50.168;8.568;2023-05-29T05:04:47;9.20;;;4.25;;
25846;SDS011;13676;50.168;8.568;2023-05-29T05:07:13;6.57;;;3.60;;
25846;SDS011;13676;50.168;8.568;2023-05-29T05:09:40;13.85;;;3.50;;
25846;SDS011;13676;50.168;8.568;2023-05-29T05:12:06;11.25;;;3.80;;
25846;SDS011;13676;50.168;8.568;2023-05-29T05:14:32;10.85;;;4.85;;
25846;SDS011;13676;50.168;8.568;2023-05-29T05:16:58;11.65;;;4.03;;
25846;SDS011;13676;50.168;8.568;2023-05-29T05:19:23;9.85;;;4.20;;
25846;SDS011;13676;50.168;8.568;2023-05-29T05:21:48;10.95;;;3.78;;
25846;SDS011;13676;50.168;8.568;2023-05-29T05:24:14;9.98;;;4.25;;
25846;SDS011;13676;50.168;8.568;2023-05-29T05:26:40;10.88;;;3.97;;
25846;SDS011;13676;50.168;8.568;2023-05-29T05:29:05;7.90;;;3.78;;
25846;SDS011;13676;50.168;8.568;2023-05-29T05:31:31;7.30;;;3.90;;
25846;SDS011;13676;50.168;8.568;2023-05-29T05:33:58;9.10;;;4.00;;
25846;SDS011;13676;50.168;8.568;2023-05-29T05:36:24;7.25;;;3.50;;
25846;SDS011;13676;50.168;8.568;2023-05-29T05:38:50;13.95;;;3.95;;
25846;SDS011;13676;50.168;8.568;2023-05-29T05:41:15;9.65;;;3.55;;
25846;SDS011;13676;50.168;8.568;2023-05-29T05:43:41;8.60;;;3.83;;
25846;SDS011;13676;50.168;8.568;2023-05-29T05:46:06;8.18;;;3.75;;
25846;SDS011;13676;50.168;8.568;2023-05-29T05:48:32;8.95;;;3.75;;
25846;SDS011;13676;50.168;8.568;2023-05-29T05:50:57;7.05;;;3.80;;
25846;SDS011;13676;50.168;8.568;2023-05-29T05:53:23;7.82;;;3.63;;
25846;SDS011;13676;50.168;8.568;2023-05-29T05:55:49;9.02;;;3.58;;
25846;SDS011;13676;50.168;8.568;2023-05-29T05:58:15;8.10;;;3.15;;
25846;SDS011;13676;50.168;8.568;2023-05-29T06:00:40;9.38;;;3.38;;
25846;SDS011;13676;50.168;8.568;2023-05-29T06:03:07;6.85;;;3.55;;
25846;SDS011;13676;50.168;8.568;2023-05-29T06:05:33;8.80;;;4.25;;
25846;SDS011;13676;50.168;8.568;2023-05-29T06:08:02;7.57;;;3.22;;
25846;SDS011;13676;50.168;8.568;2023-05-29T06:10:28;7.13;;;3.53;;
25846;SDS011;13676;50.168;8.568;2023-05-29T06:12:53;6.13;;;3.58;;
25846;SDS011;13676;50.168;8.568;2023-05-29T06:15:19;9.07;;;3.70;;
25846;SDS011;13676;50.168;8.568;2023-05-29T06:17:44;10.15;;;4.00;;
25846;SDS011;13676;50.168;8.568;2023-05-29T06:20:10;8.18;;;3.75;;
25846;SDS011;13676;50.168;8.568;2023-05-29T06:22:38;8.20;;;3.30;;
25846;SDS011;13676;50.168;8.568;2023-05-29T06:25:04;8.73;;;3.45;;
25846;SDS011;13676;50.168;8.568;2023-05-29T06:27:29;7.25;;;3.63;;
25846;SDS011;13676;50.168;8.568;2023-05-29T06:29:55;6.28;;;3.30;;
25846;SDS011;13676;50.168;8.568;2023-05-29T06:32:20;7.13;;;3.30;;
25846;SDS011;13676;50.168;8.568;2023-05-29T06:34:46;8.07;;;3.15;;
25846;SDS011;13676;50.168;8.568;2023-05-29T06:37:13;8.55;;;3.45;;
25846;SDS011;13676;50.168;8.568;2023-05-29T06:39:38;10.80;;;4.05;;
25846;SDS011;13676;50.168;8.568;2023-05-29T06:42:07;8.18;;;3.38;;
25846;SDS011;13676;50.168;8.568;2023-05-29T06:44:33;8.68;;;3.17;;
25846;SDS011;13676;50.168;8.568;2023-05-29T06:46:58;6.22;;;3.63;;
25846;SDS011;13676;50.168;8.568;2023-05-29T06:49:24;7.82;;;3.13;;
25846;SDS011;13676;50.168;8.568;2023-05-29T06:51:49;8.30;;;3.65;;
25846;SDS011;13676;50.168;8.568;2023-05-29T06:54:15;4.97;;;2.70;;
25846;SDS011;13676;50.168;8.568;2023-05-29T06:56:40;10.77;;;3.58;;
25846;SDS011;13676;50.168;8.568;2023-05-29T06:59:06;6.85;;;3.20;;
25846;SDS011;13676;50.168;8.568;2023-05-29T07:01:31;6.88;;;2.92;;
25846;SDS011;13676;50.168;8.568;2023-05-29T07:03:56;9.23;;;3.58;;
25846;SDS011;13676;50.168;8.568;2023-05-29T07:06:22;11.50;;;3.60;;
25846;SDS011;13676;50.168;8.568;2023-05-29T07:08:47;5.80;;;3.10;;
25846;SDS011;13676;50.168;8.568;2023-05-29T07:11:13;7.78;;;3.20;;
25846;SDS011;13676;50.168;8.568;2023-05-29T07:13:39;7.60;;;2.97;;
25846;SDS011;13676;50.168;8.568;2023-05-29T07:16:04;6.07;;;3.00;;
25846;SDS011;13676;50.168;8.568;2023-05-29T07:18:31;6.18;;;3.38;;
25846;SDS011;13676;50.168;8.568;2023-05-29T07:20:57;5.43;;;2.97;;
25846;SDS011;13676;50.168;8.568;2023-05-29T07:23:23;7.68;;;3.42;;
25846;SDS011;13676;50.168;8.568;2023-05-29T07:25:49;8.68;;;3.90;;
25846;SDS011;13676;50.168;8.568;2023-05-29T07:28:15;8.73;;;3.42;;
25846;SDS011;13676;50.168;8.568;2023-05-29T07:30:41;5.13;;;2.80;;
25846;SDS011;13676;50.168;8.568;2023-05-29T07:33:06;9.55;;;3.15;;
25846;SDS011;13676;50.168;8.568;2023-05-29T07:35:32;5.55;;;2.80;;
25846;SDS011;13676;50.168;8.568;2023-05-29T07:37:58;6.85;;;3.50;;
25846;SDS011;13676;50.168;8.568;2023-05-29T07:40:24;6.30;;;2.65;;
25846;SDS011;13676;50.168;8.568;2023-05-29T07:42:50;7.57;;;3.05;;
25846;SDS011;13676;50.168;8.568;2023-05-29T07:45:16;5.38;;;2.97;;
25846;SDS011;13676;50.168;8.568;2023-05-29T07:47:42;4.88;;;3.13;;
25846;SDS011;13676;50.168;8.568;2023-05-29T07:50:07;5.68;;;2.78;;
25846;SDS011;13676;50.168;8.568;2023-05-29T07:52:34;5.03;;;2.90;;
25846;SDS011;13676;50.168;8.568;2023-05-29T07:55:00;4.38;;;2.60;;
25846;SDS011;13676;50.168;8.568;2023-05-29T07:57:27;8.63;;;3.30;;
25846;SDS011;13676;50.168;8.568;2023-05-29T07:59:52;8.77;;;3.10;;
25846;SDS011;13676;50.168;8.568;2023-05-29T08:02:18;8.63;;;2.80;;
25846;SDS011;13676;50.168;8.568;2023-05-29T08:04:43;5.88;;;2.83;;
25846;SDS011;13676;50.168;8.568;2023-05-29T08:07:09;8.50;;;3.17;;
25846;SDS011;13676;50.168;8.568;2023-05-29T08:09:35;5.47;;;2.80;;
25846;SDS011;13676;50.168;8.568;2023-05-29T08:12:00;5.30;;;2.88;;
25846;SDS011;13676;50.168;8.568;2023-05-29T08:14:27;6.38;;;3.13;;
25846;SDS011;13676;50.168;8.568;2023-05-29T08:16:54;5.03;;;3.00;;
25846;SDS011;13676;50.168;8.568;2023-05-29T08:19:19;5.38;;;3.00;;
25846;SDS011;13676;50.168;8.568;2023-05-29T08:21:45;9.43;;;3.25;;
25846;SDS011;13676;50.168;8.568;2023-05-29T08:24:10;4.22;;;2.20;;
25846;SDS011;13676;50.168;8.568;2023-05-29T08:26:36;6.38;;;2.28;;
25846;SDS011;13676;50.168;8.568;2023-05-29T08:29:02;4.40;;;2.33;;
25846;SDS011;13676;50.168;8.568;2023-05-29T08:31:29;6.20;;;3.10;;
25846;SDS011;13676;50.168;8.568;2023-05-29T08:33:55;10.77;;;3.08;;
25846;SDS011;13676;50.168;8.568;2023-05-29T08:36:21;6.57;;;2.53;;
25846;SDS011;13676;50.168;8.568;2023-05-29T08:38:47;6.20;;;2.60;;
25846;SDS011;13676;50.168;8.568;2023-05-29T08:41:38;5.32;;;3.03;;
25846;SDS011;13676;50.168;8.568;2023-05-29T08:44:13;9.35;;;2.67;;
25846;SDS011;13676;50.168;8.568;2023-05-29T08:46:41;7.97;;;2.65;;
25846;SDS011;13676;50.168;8.568;2023-05-29T08:49:08;5.90;;;2.87;;
25846;SDS011;13676;50.168;8.568;2023-05-29T08:51:37;6.15;;;2.88;;
25846;SDS011;13676;50.168;8.568;2023-05-29T08:54:03;4.28;;;2.15;;
25846;SDS011;13676;50.168;8.568;2023-05-29T08:56:29;4.45;;;2.22;;
25846;SDS011;13676;50.168;8.568;2023-05-29T08:58:55;4.97;;;2.05;;
25846;SDS011;13676;50.168;8.568;2023-05-29T09:03:47;4.68;;;2.35;;
25846;SDS011;13676;50.168;8.568;2023-05-29T09:06:14;6.32;;;2.30;;
25846;SDS011;13676;50.168;8.568;2023-05-29T09:08:39;8.63;;;3.05;;
25846;SDS011;13676;50.168;8.568;2023-05-29T09:11:08;6.90;;;2.25;;
25846;SDS011;13676;50.168;8.568;2023-05-29T09:13:33;4.32;;;2.40;;
25846;SDS011;13676;50.168;8.568;2023-05-29T09:15:59;7.22;;;3.08;;
25846;SDS011;13676;50.168;8.568;2023-05-29T09:18:28;5.50;;;2.30;;
25846;SDS011;13676;50.168;8.568;2023-05-29T09:20:57;4.60;;;2.90;;
25846;SDS011;13676;50.168;8.568;2023-05-29T09:23:23;4.82;;;2.38;;
25846;SDS011;13676;50.168;8.568;2023-05-29T09:25:51;4.47;;;2.50;;
25846;SDS011;13676;50.168;8.568;2023-05-29T09:28:17;4.57;;;2.28;;
25846;SDS011;13676;50.168;8.568;2023-05-29T09:30:44;5.85;;;2.05;;
25846;SDS011;13676;50.168;8.568;2023-05-29T09:33:10;7.45;;;2.00;;
25846;SDS011;13676;50.168;8.568;2023-05-29T09:35:41;3.13;;;1.77;;
25846;SDS011;13676;50.168;8.568;2023-05-29T09:38:08;6.60;;;2.67;;
25846;SDS011;13676;50.168;8.568;2023-05-29T09:40:36;5.85;;;2.33;;
25846;SDS011;13676;50.168;8.568;2023-05-29T09:43:05;5.05;;;2.85;;
25846;SDS011;13676;50.168;8.568;2023-05-29T09:45:42;6.57;;;2.88;;
25846;SDS011;13676;50.168;8.568;2023-05-29T09:48:15;11.25;;;2.70;;
25846;SDS011;13676;50.168;8.568;2023-05-29T09:50:46;3.92;;;2.28;;
25846;SDS011;13676;50.168;8.568;2023-05-29T09:53:17;4.47;;;2.67;;
25846;SDS011;13676;50.168;8.568;2023-05-29T09:55:44;6.50;;;2.50;;
25846;SDS011;13676;50.168;8.568;2023-05-29T09:58:33;3.05;;;2.00;;
25846;SDS011;13676;50.168;8.568;2023-05-29T10:01:00;7.10;;;2.15;;
25846;SDS011;13676;50.168;8.568;2023-05-29T10:03:26;6.13;;;3.05;;
25846;SDS011;13676;50.168;8.568;2023-05-29T10:05:55;7.40;;;2.85;;
25846;SDS011;13676;50.168;8.568;2023-05-29T10:08:23;4.50;;;2.40;;
25846;SDS011;13676;50.168;8.568;2023-05-29T10:10:53;6.90;;;3.13;;
25846;SDS011;13676;50.168;8.568;2023-05-29T10:13:21;7.15;;;3.13;;
25846;SDS011;13676;50.168;8.568;2023-05-29T10:15:49;5.47;;;2.63;;
25846;SDS011;13676;50.168;8.568;2023-05-29T10:20:52;5.38;;;2.10;;
25846;SDS011;13676;50.168;8.568;2023-05-29T10:23:24;6.95;;;2.95;;
25846;SDS011;13676;50.168;8.568;2023-05-29T10:25:54;6.22;;;2.42;;
25846;SDS011;13676;50.168;8.568;2023-05-29T10:28:29;3.20;;;2.22;;
25846;SDS011;13676;50.168;8.568;2023-05-29T10:31:03;8.18;;;3.15;;
25846;SDS011;13676;50.168;8.568;2023-05-29T10:36:24;8.25;;;3.03;;
25846;SDS011;13676;50.168;8.568;2023-05-29T10:38:52;8.13;;;2.40;;
25846;SDS011;13676;50.168;8.568;2023-05-29T10:49:16;6.70;;;2.90;;
25846;SDS011;13676;50.168;8.568;2023-05-29T10:51:41;5.95;;;2.92;;
25846;SDS011;13676;50.168;8.568;2023-05-29T10:54:07;6.38;;;3.00;;
25846;SDS011;13676;50.168;8.568;2023-05-29T10:56:32;5.18;;;2.50;;
25846;SDS011;13676;50.168;8.568;2023-05-29T10:58:58;7.68;;;1.90;;
25846;SDS011;13676;50.168;8.568;2023-05-29T11:01:26;8.82;;;2.90;;
25846;SDS011;13676;50.168;8.568;2023-05-29T11:06:43;3.40;;;2.42;;
25846;SDS011;13676;50.168;8.568;2023-05-29T11:14:53;5.00;;;1.92;;
25846;SDS011;13676;50.168;8.568;2023-05-29T11:17:42;6.55;;;3.50;;
25846;SDS011;13676;50.168;8.568;2023-05-29T11:20:35;6.10;;;2.42;;
25846;SDS011;13676;50.168;8.568;2023-05-29T11:23:02;6.18;;;2.92;;
25846;SDS011;13676;50.168;8.568;2023-05-29T11:25:33;6.72;;;2.78;;
25846;SDS011;13676;50.168;8.568;2023-05-29T11:27:59;5.78;;;3.28;;
25846;SDS011;13676;50.168;8.568;2023-05-29T11:30:25;3.92;;;2.28;;
25846;SDS011;13676;50.168;8.568;2023-05-29T11:32:53;8.13;;;2.72;;
25846;SDS011;13676;50.168;8.568;2023-05-29T11:35:21;4.68;;;2.28;;
25846;SDS011;13676;50.168;8.568;2023-05-29T11:37:47;6.18;;;2.67;;
25846;SDS011;13676;50.168;8.568;2023-05-29T11:40:14;6.18;;;3.00;;
25846;SDS011;13676;50.168;8.568;2023-05-29T11:42:41;5.25;;;2.00;;
25846;SDS011;13676;50.168;8.568;2023-05-29T11:45:15;4.55;;;2.85;;
25846;SDS011;13676;50.168;8.568;2023-05-29T11:47:58;5.82;;;2.50;;
25846;SDS011;13676;50.168;8.568;2023-05-29T11:50:28;4.30;;;2.63;;
25846;SDS011;13676;50.168;8.568;2023-05-29T11:52:56;4.32;;;3.00;;
25846;SDS011;13676;50.168;8.568;2023-05-29T11:55:22;4.93;;;2.90;;
25846;SDS011;13676;50.168;8.568;2023-05-29T11:57:48;5.68;;;2.85;;
25846;SDS011;13676;50.168;8.568;2023-05-29T12:00:15;5.50;;;3.10;;
25846;SDS011;13676;50.168;8.568;2023-05-29T12:02:41;10.85;;;2.80;;
25846;SDS011;13676;50.168;8.568;2023-05-29T12:05:12;5.20;;;2.63;;
25846;SDS011;13676;50.168;8.568;2023-05-29T12:07:46;5.10;;;3.05;;
25846;SDS011;13676;50.168;8.568;2023-05-29T12:10:20;6.57;;;2.60;;
25846;SDS011;13676;50.168;8.568;2023-05-29T12:12:52;7.05;;;2.97;;
25846;SDS011;13676;50.168;8.568;2023-05-29T12:15:19;7.20;;;2.83;;
25846;SDS011;13676;50.168;8.568;2023-05-29T12:17:45;7.75;;;2.80;;
25846;SDS011;13676;50.168;8.568;2023-05-29T12:20:11;4.75;;;2.70;;
25846;SDS011;13676;50.168;8.568;2023-05-29T12:22:39;5.18;;;2.65;;
25846;SDS011;13676;50.168;8.568;2023-05-29T12:25:07;3.60;;;2.30;;
25846;SDS011;13676;50.168;8.568;2023-05-29T12:27:37;5.57;;;2.42;;
25846;SDS011;13676;50.168;8.568;2023-05-29T12:30:11;6.70;;;2.50;;
25846;SDS011;13676;50.168;8.568;2023-05-29T12:32:41;4.15;;;2.05;;
25846;SDS011;13676;50.168;8.568;2023-05-29T12:37:44;3.38;;;1.95;;
25846;SDS011;13676;50.168;8.568;2023-05-29T12:42:41;6.85;;;2.40;;
25846;SDS011;13676;50.168;8.568;2023-05-29T12:45:07;5.05;;;2.55;;
25846;SDS011;13676;50.168;8.568;2023-05-29T12:47:34;5.03;;;2.70;;
25846;SDS011;13676;50.168;8.568;2023-05-29T12:50:03;6.43;;;3.03;;
25846;SDS011;13676;50.168;8.568;2023-05-29T12:52:30;7.20;;;2.63;;
25846;SDS011;13676;50.168;8.568;2023-05-29T12:54:55;9.48;;;3.20;;
25846;SDS011;13676;50.168;8.568;2023-05-29T12:57:20;4.57;;;2.72;;
25846;SDS011;13676;50.168;8.568;2023-05-29T12:59:46;5.85;;;2.83;;
25846;SDS011;13676;50.168;8.568;2023-05-29T13:02:12;4.18;;;2.40;;
25846;SDS011;13676;50.168;8.568;2023-05-29T13:04:37;6.82;;;3.25;;
25846;SDS011;13676;50.168;8.568;2023-05-29T13:07:03;7.80;;;3.13;;
25846;SDS011;13676;50.168;8.568;2023-05-29T13:09:29;8.20;;;2.65;;
25846;SDS011;13676;50.168;8.568;2023-05-29T13:11:56;7.00;;;3.00;;
25846;SDS011;13676;50.168;8.568;2023-05-29T13:16:47;5.73;;;2.77;;
25846;SDS011;13676;50.168;8.568;2023-05-29T13:19:13;5.43;;;2.85;;
25846;SDS011;13676;50.168;8.568;2023-05-29T13:21:38;5.47;;;2.85;;
25846;SDS011;13676;50.168;8.568;2023-05-29T13:24:05;4.57;;;2.50;;
25846;SDS011;13676;50.168;8.568;2023-05-29T13:26:31;4.47;;;2.60;;
25846;SDS011;13676;50.168;8.568;2023-05-29T13:28:56;6.57;;;3.55;;
25846;SDS011;13676;50.168;8.568;2023-05-29T13:31:23;8.00;;;2.92;;
25846;SDS011;13676;50.168;8.568;2023-05-29T13:33:49;5.40;;;2.90;;
25846;SDS011;13676;50.168;8.568;2023-05-29T13:36:14;4.88;;;2.60;;
25846;SDS011;13676;50.168;8.568;2023-05-29T13:38:39;8.10;;;3.10;;
25846;SDS011;13676;50.168;8.568;2023-05-29T13:41:05;6.45;;;2.78;;
25846;SDS011;13676;50.168;8.568;2023-05-29T13:43:31;8.60;;;3.63;;
25846;SDS011;13676;50.168;8.568;2023-05-29T13:45:56;5.82;;;2.83;;
25846;SDS011;13676;50.168;8.568;2023-05-29T13:48:22;4.45;;;2.60;;
25846;SDS011;13676;50.168;8.568;2023-05-29T13:50:47;8.50;;;2.70;;
25846;SDS011;13676;50.168;8.568;2023-05-29T13:53:13;7.63;;;2.92;;
25846;SDS011;13676;50.168;8.568;2023-05-29T13:55:39;6.25;;;2.80;;
25846;SDS011;13676;50.168;8.568;2023-05-29T13:58:05;6.50;;;2.83;;
25846;SDS011;13676;50.168;8.568;2023-05-29T14:00:30;4.30;;;2.92;;
25846;SDS011;13676;50.168;8.568;2023-05-29T14:02:56;5.10;;;2.75;;
25846;SDS011;13676;50.168;8.568;2023-05-29T14:05:21;6.53;;;3.33;;
25846;SDS011;13676;50.168;8.568;2023-05-29T14:07:46;6.60;;;2.75;;
25846;SDS011;13676;50.168;8.568;2023-05-29T14:10:12;5.47;;;3.08;;
25846;SDS011;13676;50.168;8.568;2023-05-29T14:12:37;7.43;;;3.03;;
25846;SDS011;13676;50.168;8.568;2023-05-29T14:15:04;6.33;;;3.40;;
25846;SDS011;13676;50.168;8.568;2023-05-29T14:17:31;8.85;;;3.25;;
25846;SDS011;13676;50.168;8.568;2023-05-29T14:19:56;6.68;;;2.95;;
25846;SDS011;13676;50.168;8.568;2023-05-29T14:22:21;5.63;;;2.42;;
25846;SDS011;13676;50.168;8.568;2023-05-29T14:24:47;6.30;;;2.70;;
25846;SDS011;13676;50.168;8.568;2023-05-29T14:27:13;5.75;;;2.60;;
25846;SDS011;13676;50.168;8.568;2023-05-29T14:29:39;6.38;;;3.67;;
25846;SDS011;13676;50.168;8.568;2023-05-29T14:32:06;5.07;;;2.40;;
25846;SDS011;13676;50.168;8.568;2023-05-29T14:34:32;3.90;;;2.30;;
25846;SDS011;13676;50.168;8.568;2023-05-29T14:36:57;4.75;;;2.75;;
25846;SDS011;13676;50.168;8.568;2023-05-29T14:39:23;5.72;;;2.80;;
25846;SDS011;13676;50.168;8.568;2023-05-29T14:41:48;6.47;;;2.75;;
25846;SDS011;13676;50.168;8.568;2023-05-29T14:44:14;3.60;;;2.25;;
25846;SDS011;13676;50.168;8.568;2023-05-29T14:46:40;8.00;;;3.03;;
25846;SDS011;13676;50.168;8.568;2023-05-29T14:49:06;6.00;;;2.67;;
25846;SDS011;13676;50.168;8.568;2023-05-29T14:51:31;5.90;;;2.90;;
25846;SDS011;13676;50.168;8.568;2023-05-29T14:53:59;6.78;;;3.42;;
25846;SDS011;13676;50.168;8.568;2023-05-29T14:56:24;7.75;;;3.17;;
25846;SDS011;13676;50.168;8.568;2023-05-29T14:58:50;5.10;;;2.28;;
25846;SDS011;13676;50.168;8.568;2023-05-29T15:01:15;5.00;;;2.90;;
25846;SDS011;13676;50.168;8.568;2023-05-29T15:03:41;5.72;;;2.95;;
25846;SDS011;13676;50.168;8.568;2023-05-29T15:06:08;7.07;;;3.40;;
25846;SDS011;13676;50.168;8.568;2023-05-29T15:08:35;7.32;;;3.03;;
25846;SDS011;13676;50.168;8.568;2023-05-29T15:11:01;6.82;;;3.38;;
25846;SDS011;13676;50.168;8.568;2023-05-29T15:13:30;6.47;;;3.47;;
25846;SDS011;13676;50.168;8.568;2023-05-29T15:15:56;6.37;;;3.50;;
25846;SDS011;13676;50.168;8.568;2023-05-29T15:18:24;6.72;;;3.58;;
25846;SDS011;13676;50.168;8.568;2023-05-29T15:20:52;7.65;;;3.63;;
25846;SDS011;13676;50.168;8.568;2023-05-29T15:23:18;4.97;;;3.20;;
25846;SDS011;13676;50.168;8.568;2023-05-29T15:25:47;6.68;;;3.35;;